sensor_id;sensor_type;location;lat;lon;timestamp;temperature;humidity
75357;HTU21D;63946;51.986;5.930;2022-12-15T00:01:11;-2.06;65.17
75357;HTU21D;63946;51.986;5.930;2022-12-15T00:03:52;-2.06;65.20
75357;HTU21D;63946;51.986;5.930;2022-12-15T00:06:34;-2.07;65.19
75357;HTU21D;63946;51.986;5.930;2022-12-15T00:09:15;-2.06;65.20
75357;HTU21D;63946;51.986;5.930;2022-12-15T00:11:56;-2.05;65.16
75357;HTU21D;63946;51.986;5.930;2022-12-15T00:14:37;-2.03;65.09
75357;HTU21D;63946;51.986;5.930;2022-12-15T00:17:18;-2.06;65.02
75357;HTU21D;63946;51.986;5.930;2022-12-15T00:19:59;-2.07;65.04
75357;HTU21D;63946;51.986;5.930;2022-12-15T00:22:41;-2.05;64.98
75357;HTU21D;63946;51.986;5.930;2022-12-15T00:25:22;-2.08;65.08
75357;HTU21D;63946;51.986;5.930;2022-12-15T00:28:03;-2.07;65.10
75357;HTU21D;63946;51.986;5.930;2022-12-15T00:30:44;-2.08;65.04
75357;HTU21D;63946;51.986;5.930;2022-12-15T00:33:25;-2.12;65.04
75357;HTU21D;63946;51.986;5.930;2022-12-15T00:36:07;-2.10;64.98
75357;HTU21D;63946;51.986;5.930;2022-12-15T00:38:48;-2.13;65.03
75357;HTU21D;63946;51.986;5.930;2022-12-15T00:41:17;-2.14;65.11
75357;HTU21D;63946;51.986;5.930;2022-12-15T00:43:46;-2.16;65.06
75357;HTU21D;63946;51.986;5.930;2022-12-15T00:46:15;-2.19;65.14
75357;HTU21D;63946;51.986;5.930;2022-12-15T00:48:56;-2.20;65.10
75357;HTU21D;63946;51.986;5.930;2022-12-15T00:51:25;-2.23;65.06
75357;HTU21D;63946;51.986;5.930;2022-12-15T00:54:06;-2.26;65.21
75357;HTU21D;63946;51.986;5.930;2022-12-15T00:56:47;-2.27;65.24
75357;HTU21D;63946;51.986;5.930;2022-12-15T00:59:31;-2.27;65.23
75357;HTU21D;63946;51.986;5.930;2022-12-15T01:02:12;-2.28;65.27
75357;HTU21D;63946;51.986;5.930;2022-12-15T01:04:53;-2.27;65.18
75357;HTU21D;63946;51.986;5.930;2022-12-15T01:07:35;-2.27;65.19
75357;HTU21D;63946;51.986;5.930;2022-12-15T01:10:17;-2.23;65.10
75357;HTU21D;63946;51.986;5.930;2022-12-15T01:12:58;-2.29;65.28
75357;HTU21D;63946;51.986;5.930;2022-12-15T01:15:40;-2.26;65.25
75357;HTU21D;63946;51.986;5.930;2022-12-15T01:18:21;-2.27;65.19
75357;HTU21D;63946;51.986;5.930;2022-12-15T01:21:05;-2.26;65.22
75357;HTU21D;63946;51.986;5.930;2022-12-15T01:23:35;-2.24;65.22
75357;HTU21D;63946;51.986;5.930;2022-12-15T01:26:05;-2.24;65.17
75357;HTU21D;63946;51.986;5.930;2022-12-15T01:28:35;-2.26;65.21
75357;HTU21D;63946;51.986;5.930;2022-12-15T01:31:11;-2.27;65.14
75357;HTU21D;63946;51.986;5.930;2022-12-15T01:33:39;-2.26;65.11
75357;HTU21D;63946;51.986;5.930;2022-12-15T01:36:09;-2.28;65.17
75357;HTU21D;63946;51.986;5.930;2022-12-15T01:38:38;-2.30;65.27
75357;HTU21D;63946;51.986;5.930;2022-12-15T01:41:09;-2.28;65.26
75357;HTU21D;63946;51.986;5.930;2022-12-15T01:43:37;-2.26;65.27
75357;HTU21D;63946;51.986;5.930;2022-12-15T01:48:49;-2.23;65.24
75357;HTU21D;63946;51.986;5.930;2022-12-15T01:54:01;-2.21;65.17
75357;HTU21D;63946;51.986;5.930;2022-12-15T01:56:35;-2.20;65.08
75357;HTU21D;63946;51.986;5.930;2022-12-15T01:59:08;-2.21;65.14
75357;HTU21D;63946;51.986;5.930;2022-12-15T02:01:39;-2.21;65.06
75357;HTU21D;63946;51.986;5.930;2022-12-15T02:04:09;-2.22;65.10
75357;HTU21D;63946;51.986;5.930;2022-12-15T02:06:38;-2.23;65.11
75357;HTU21D;63946;51.986;5.930;2022-12-15T02:09:07;-2.26;65.06
75357;HTU21D;63946;51.986;5.930;2022-12-15T02:11:43;-2.27;65.13
75357;HTU21D;63946;51.986;5.930;2022-12-15T02:14:44;-2.29;65.24
75357;HTU21D;63946;51.986;5.930;2022-12-15T02:17:20;-2.31;65.20
75357;HTU21D;63946;51.986;5.930;2022-12-15T02:20:17;-2.32;65.29
75357;HTU21D;63946;51.986;5.930;2022-12-15T02:31:32;-2.32;65.21
75357;HTU21D;63946;51.986;5.930;2022-12-15T02:34:33;-2.32;65.27
75357;HTU21D;63946;51.986;5.930;2022-12-15T02:37:10;-2.34;65.27
75357;HTU21D;63946;51.986;5.930;2022-12-15T02:39:41;-2.34;65.27
75357;HTU21D;63946;51.986;5.930;2022-12-15T02:42:10;-2.34;65.27
75357;HTU21D;63946;51.986;5.930;2022-12-15T02:44:58;-2.33;65.22
75357;HTU21D;63946;51.986;5.930;2022-12-15T02:53:27;-2.37;65.14
75357;HTU21D;63946;51.986;5.930;2022-12-15T02:56:35;-2.38;65.00
75357;HTU21D;63946;51.986;5.930;2022-12-15T03:01:48;-2.39;64.92
75357;HTU21D;63946;51.986;5.930;2022-12-15T03:04:19;-2.43;64.92
75357;HTU21D;63946;51.986;5.930;2022-12-15T03:06:59;-2.44;64.97
75357;HTU21D;63946;51.986;5.930;2022-12-15T03:09:31;-2.44;65.00
75357;HTU21D;63946;51.986;5.930;2022-12-15T03:12:00;-2.41;65.01
75357;HTU21D;63946;51.986;5.930;2022-12-15T03:14:29;-2.38;65.00
75357;HTU21D;63946;51.986;5.930;2022-12-15T03:16:58;-2.36;65.05
75357;HTU21D;63946;51.986;5.930;2022-12-15T03:19:26;-2.34;64.98
75357;HTU21D;63946;51.986;5.930;2022-12-15T03:21:56;-2.34;64.99
75357;HTU21D;63946;51.986;5.930;2022-12-15T03:24:24;-2.33;64.98
75357;HTU21D;63946;51.986;5.930;2022-12-15T03:26:53;-2.32;64.98
75357;HTU21D;63946;51.986;5.930;2022-12-15T03:29:22;-2.32;65.01
75357;HTU21D;63946;51.986;5.930;2022-12-15T03:31:51;-2.31;64.95
75357;HTU21D;63946;51.986;5.930;2022-12-15T03:34:19;-2.31;64.95
75357;HTU21D;63946;51.986;5.930;2022-12-15T03:36:48;-2.31;64.95
75357;HTU21D;63946;51.986;5.930;2022-12-15T03:39:17;-2.34;65.05
75357;HTU21D;63946;51.986;5.930;2022-12-15T03:41:45;-2.34;64.99
75357;HTU21D;63946;51.986;5.930;2022-12-15T03:44:14;-2.36;65.09
75357;HTU21D;63946;51.986;5.930;2022-12-15T03:46:43;-2.36;65.12
75357;HTU21D;63946;51.986;5.930;2022-12-15T03:49:12;-2.34;65.04
75357;HTU21D;63946;51.986;5.930;2022-12-15T03:51:40;-2.33;64.95
75357;HTU21D;63946;51.986;5.930;2022-12-15T03:54:11;-2.34;64.90
75357;HTU21D;63946;51.986;5.930;2022-12-15T03:56:40;-2.33;64.92
75357;HTU21D;63946;51.986;5.930;2022-12-15T03:59:09;-2.34;64.98
75357;HTU21D;63946;51.986;5.930;2022-12-15T04:01:44;-2.32;64.90
75357;HTU21D;63946;51.986;5.930;2022-12-15T04:04:14;-2.32;64.85
75357;HTU21D;63946;51.986;5.930;2022-12-15T04:06:42;-2.32;64.81
75357;HTU21D;63946;51.986;5.930;2022-12-15T04:09:11;-2.32;64.77
75357;HTU21D;63946;51.986;5.930;2022-12-15T04:11:42;-2.34;64.82
75357;HTU21D;63946;51.986;5.930;2022-12-15T04:14:11;-2.32;64.85
75357;HTU21D;63946;51.986;5.930;2022-12-15T04:16:40;-2.34;64.84
75357;HTU21D;63946;51.986;5.930;2022-12-15T04:19:09;-2.35;64.82
75357;HTU21D;63946;51.986;5.930;2022-12-15T04:21:50;-2.32;64.80
75357;HTU21D;63946;51.986;5.930;2022-12-15T04:24:19;-2.31;64.81
75357;HTU21D;63946;51.986;5.930;2022-12-15T04:27:00;-2.31;64.77
75357;HTU21D;63946;51.986;5.930;2022-12-15T04:29:41;-2.32;64.77
75357;HTU21D;63946;51.986;5.930;2022-12-15T04:32:22;-2.34;64.74
75357;HTU21D;63946;51.986;5.930;2022-12-15T04:35:04;-2.38;64.80
75357;HTU21D;63946;51.986;5.930;2022-12-15T04:37:45;-2.41;64.82
75357;HTU21D;63946;51.986;5.930;2022-12-15T04:40:26;-2.41;64.87
75357;HTU21D;63946;51.986;5.930;2022-12-15T04:43:07;-2.42;64.91
75357;HTU21D;63946;51.986;5.930;2022-12-15T04:45:48;-2.43;64.87
75357;HTU21D;63946;51.986;5.930;2022-12-15T04:48:29;-2.43;64.82
75357;HTU21D;63946;51.986;5.930;2022-12-15T04:51:10;-2.45;64.80
75357;HTU21D;63946;51.986;5.930;2022-12-15T04:53:52;-2.44;64.85
75357;HTU21D;63946;51.986;5.930;2022-12-15T04:56:33;-2.47;64.82
75357;HTU21D;63946;51.986;5.930;2022-12-15T04:59:14;-2.48;64.78
75357;HTU21D;63946;51.986;5.930;2022-12-15T05:01:55;-2.49;64.82
75357;HTU21D;63946;51.986;5.930;2022-12-15T05:04:36;-2.53;64.88
75357;HTU21D;63946;51.986;5.930;2022-12-15T05:07:18;-2.57;64.85
75357;HTU21D;63946;51.986;5.930;2022-12-15T05:09:59;-2.60;64.94
75357;HTU21D;63946;51.986;5.930;2022-12-15T05:12:41;-2.61;64.98
75357;HTU21D;63946;51.986;5.930;2022-12-15T05:15:22;-2.62;65.01
75357;HTU21D;63946;51.986;5.930;2022-12-15T05:18:06;-2.64;65.09
75357;HTU21D;63946;51.986;5.930;2022-12-15T05:20:47;-2.66;64.97
75357;HTU21D;63946;51.986;5.930;2022-12-15T05:23:28;-2.68;64.92
75357;HTU21D;63946;51.986;5.930;2022-12-15T05:26:09;-2.74;65.05
75357;HTU21D;63946;51.986;5.930;2022-12-15T05:28:50;-2.78;65.01
75357;HTU21D;63946;51.986;5.930;2022-12-15T05:31:32;-2.77;65.01
75357;HTU21D;63946;51.986;5.930;2022-12-15T05:34:14;-2.78;65.06
75357;HTU21D;63946;51.986;5.930;2022-12-15T05:36:42;-2.78;65.06
75357;HTU21D;63946;51.986;5.930;2022-12-15T05:39:11;-2.81;65.13
75357;HTU21D;63946;51.986;5.930;2022-12-15T05:41:40;-2.79;65.13
75357;HTU21D;63946;51.986;5.930;2022-12-15T05:44:09;-2.77;65.04
75357;HTU21D;63946;51.986;5.930;2022-12-15T05:46:38;-2.77;65.04
75357;HTU21D;63946;51.986;5.930;2022-12-15T05:49:09;-2.77;65.04
75357;HTU21D;63946;51.986;5.930;2022-12-15T05:51:40;-2.80;65.05
75357;HTU21D;63946;51.986;5.930;2022-12-15T05:54:12;-2.81;65.15
75357;HTU21D;63946;51.986;5.930;2022-12-15T05:56:42;-2.80;65.24
75357;HTU21D;63946;51.986;5.930;2022-12-15T05:59:11;-2.79;65.30
75357;HTU21D;63946;51.986;5.930;2022-12-15T06:01:40;-2.79;65.31
75357;HTU21D;63946;51.986;5.930;2022-12-15T06:04:12;-2.77;65.29
75357;HTU21D;63946;51.986;5.930;2022-12-15T06:06:41;-2.76;65.21
75357;HTU21D;63946;51.986;5.930;2022-12-15T06:09:10;-2.76;65.17
75357;HTU21D;63946;51.986;5.930;2022-12-15T06:11:38;-2.78;65.16
75357;HTU21D;63946;51.986;5.930;2022-12-15T06:14:08;-2.80;65.17
75357;HTU21D;63946;51.986;5.930;2022-12-15T06:16:36;-2.77;65.21
75357;HTU21D;63946;51.986;5.930;2022-12-15T06:19:05;-2.79;65.26
75357;HTU21D;63946;51.986;5.930;2022-12-15T06:21:34;-2.78;65.34
75357;HTU21D;63946;51.986;5.930;2022-12-15T06:24:04;-2.79;65.43
75357;HTU21D;63946;51.986;5.930;2022-12-15T06:26:37;-2.77;65.50
75357;HTU21D;63946;51.986;5.930;2022-12-15T06:29:09;-2.76;65.50
75357;HTU21D;63946;51.986;5.930;2022-12-15T06:31:39;-2.74;65.36
75357;HTU21D;63946;51.986;5.930;2022-12-15T06:34:11;-2.74;65.45
75357;HTU21D;63946;51.986;5.930;2022-12-15T06:36:41;-2.75;65.47
75357;HTU21D;63946;51.986;5.930;2022-12-15T06:39:11;-2.77;65.50
75357;HTU21D;63946;51.986;5.930;2022-12-15T06:41:41;-2.81;65.57
75357;HTU21D;63946;51.986;5.930;2022-12-15T06:44:12;-2.83;65.58
75357;HTU21D;63946;51.986;5.930;2022-12-15T06:46:42;-2.84;65.59
75357;HTU21D;63946;51.986;5.930;2022-12-15T06:49:11;-2.86;65.60
75357;HTU21D;63946;51.986;5.930;2022-12-15T06:51:39;-2.87;65.58
75357;HTU21D;63946;51.986;5.930;2022-12-15T06:54:10;-2.87;65.50
75357;HTU21D;63946;51.986;5.930;2022-12-15T06:56:39;-2.94;65.68
75357;HTU21D;63946;51.986;5.930;2022-12-15T06:59:09;-2.94;65.75
75357;HTU21D;63946;51.986;5.930;2022-12-15T07:01:38;-2.92;65.75
75357;HTU21D;63946;51.986;5.930;2022-12-15T07:04:07;-2.93;65.78
75357;HTU21D;63946;51.986;5.930;2022-12-15T07:06:36;-2.95;65.81
75357;HTU21D;63946;51.986;5.930;2022-12-15T07:09:12;-2.96;65.87
75357;HTU21D;63946;51.986;5.930;2022-12-15T07:11:43;-2.96;65.85
75357;HTU21D;63946;51.986;5.930;2022-12-15T07:14:15;-2.96;65.83
75357;HTU21D;63946;51.986;5.930;2022-12-15T07:16:43;-2.96;65.79
75357;HTU21D;63946;51.986;5.930;2022-12-15T07:19:12;-3.00;65.82
75357;HTU21D;63946;51.986;5.930;2022-12-15T07:21:41;-3.00;65.85
75357;HTU21D;63946;51.986;5.930;2022-12-15T07:24:10;-2.98;65.71
75357;HTU21D;63946;51.986;5.930;2022-12-15T07:26:40;-2.97;65.66
75357;HTU21D;63946;51.986;5.930;2022-12-15T07:29:10;-2.97;65.61
75357;HTU21D;63946;51.986;5.930;2022-12-15T07:31:39;-2.98;65.69
75357;HTU21D;63946;51.986;5.930;2022-12-15T07:34:08;-2.98;65.65
75357;HTU21D;63946;51.986;5.930;2022-12-15T07:36:37;-2.97;65.70
75357;HTU21D;63946;51.986;5.930;2022-12-15T07:39:06;-2.97;65.70
75357;HTU21D;63946;51.986;5.930;2022-12-15T07:41:36;-2.95;65.67
75357;HTU21D;63946;51.986;5.930;2022-12-15T07:44:05;-2.96;65.63
75357;HTU21D;63946;51.986;5.930;2022-12-15T07:46:35;-2.97;65.62
75357;HTU21D;63946;51.986;5.930;2022-12-15T07:49:03;-2.97;65.51
75357;HTU21D;63946;51.986;5.930;2022-12-15T07:51:32;-2.98;65.56
75357;HTU21D;63946;51.986;5.930;2022-12-15T07:54:01;-3.01;65.56
75357;HTU21D;63946;51.986;5.930;2022-12-15T07:56:29;-3.03;65.68
75357;HTU21D;63946;51.986;5.930;2022-12-15T07:58:58;-3.04;65.65
75357;HTU21D;63946;51.986;5.930;2022-12-15T08:01:27;-3.05;65.65
75357;HTU21D;63946;51.986;5.930;2022-12-15T08:03:55;-3.05;65.72
75357;HTU21D;63946;51.986;5.930;2022-12-15T08:06:24;-3.07;65.72
75357;HTU21D;63946;51.986;5.930;2022-12-15T08:08:53;-3.08;65.65
75357;HTU21D;63946;51.986;5.930;2022-12-15T08:11:22;-3.08;65.62
75357;HTU21D;63946;51.986;5.930;2022-12-15T08:13:51;-3.05;65.59
75357;HTU21D;63946;51.986;5.930;2022-12-15T08:16:20;-3.05;65.57
75357;HTU21D;63946;51.986;5.930;2022-12-15T08:18:48;-3.07;65.60
75357;HTU21D;63946;51.986;5.930;2022-12-15T08:21:17;-3.03;65.72
75357;HTU21D;63946;51.986;5.930;2022-12-15T08:23:49;-2.98;65.62
75357;HTU21D;63946;51.986;5.930;2022-12-15T08:26:18;-2.94;65.50
75357;HTU21D;63946;51.986;5.930;2022-12-15T08:28:48;-2.92;65.56
75357;HTU21D;63946;51.986;5.930;2022-12-15T08:31:19;-2.87;65.51
75357;HTU21D;63946;51.986;5.930;2022-12-15T08:33:48;-2.84;65.58
75357;HTU21D;63946;51.986;5.930;2022-12-15T08:36:18;-2.81;65.50
75357;HTU21D;63946;51.986;5.930;2022-12-15T08:38:47;-2.78;65.47
75357;HTU21D;63946;51.986;5.930;2022-12-15T08:41:22;-2.76;65.62
75357;HTU21D;63946;51.986;5.930;2022-12-15T08:43:52;-2.72;65.67
75357;HTU21D;63946;51.986;5.930;2022-12-15T08:46:24;-2.68;65.67
75357;HTU21D;63946;51.986;5.930;2022-12-15T08:48:53;-2.64;65.69
75357;HTU21D;63946;51.986;5.930;2022-12-15T08:51:24;-2.61;65.80
75357;HTU21D;63946;51.986;5.930;2022-12-15T08:53:54;-2.54;65.90
75357;HTU21D;63946;51.986;5.930;2022-12-15T08:56:26;-2.52;65.98
75357;HTU21D;63946;51.986;5.930;2022-12-15T08:58:58;-2.47;66.15
75357;HTU21D;63946;51.986;5.930;2022-12-15T09:01:29;-2.43;66.17
75357;HTU21D;63946;51.986;5.930;2022-12-15T09:04:04;-2.38;66.24
75357;HTU21D;63946;51.986;5.930;2022-12-15T09:06:34;-2.31;66.17
75357;HTU21D;63946;51.986;5.930;2022-12-15T09:09:06;-2.19;66.06
75357;HTU21D;63946;51.986;5.930;2022-12-15T09:11:35;-2.10;65.94
75357;HTU21D;63946;51.986;5.930;2022-12-15T09:14:05;-2.04;65.86
75357;HTU21D;63946;51.986;5.930;2022-12-15T09:16:33;-2.00;65.85
75357;HTU21D;63946;51.986;5.930;2022-12-15T09:19:02;-2.02;65.99
75357;HTU21D;63946;51.986;5.930;2022-12-15T09:21:32;-2.05;66.25
75357;HTU21D;63946;51.986;5.930;2022-12-15T09:24:05;-2.04;66.44
75357;HTU21D;63946;51.986;5.930;2022-12-15T09:26:33;-1.94;66.34
75357;HTU21D;63946;51.986;5.930;2022-12-15T09:29:03;-1.89;66.20
75357;HTU21D;63946;51.986;5.930;2022-12-15T09:31:35;-1.90;66.32
75357;HTU21D;63946;51.986;5.930;2022-12-15T09:34:05;-1.94;66.47
75357;HTU21D;63946;51.986;5.930;2022-12-15T09:36:33;-1.90;66.53
75357;HTU21D;63946;51.986;5.930;2022-12-15T09:39:02;-1.84;66.40
75357;HTU21D;63946;51.986;5.930;2022-12-15T09:41:34;-1.75;66.35
75357;HTU21D;63946;51.986;5.930;2022-12-15T09:44:18;-1.65;66.24
75357;HTU21D;63946;51.986;5.930;2022-12-15T09:47:05;-1.53;66.10
75357;HTU21D;63946;51.986;5.930;2022-12-15T09:52:12;-1.34;65.86
75357;HTU21D;63946;51.986;5.930;2022-12-15T09:54:42;-1.25;65.82
75357;HTU21D;63946;51.986;5.930;2022-12-15T09:57:17;-1.15;65.74
75357;HTU21D;63946;51.986;5.930;2022-12-15T10:08:33;-0.72;65.24
75357;HTU21D;63946;51.986;5.930;2022-12-15T10:11:49;-0.62;65.17
75357;HTU21D;63946;51.986;5.930;2022-12-15T10:17:47;-0.49;65.12
75357;HTU21D;63946;51.986;5.930;2022-12-15T10:20:22;-0.40;65.04
75357;HTU21D;63946;51.986;5.930;2022-12-15T10:22:52;-0.30;64.96
75357;HTU21D;63946;51.986;5.930;2022-12-15T10:25:24;-0.30;64.91
75357;HTU21D;63946;51.986;5.930;2022-12-15T10:30:56;-0.26;65.18
75357;HTU21D;63946;51.986;5.930;2022-12-15T10:33:37;-0.13;65.01
75357;HTU21D;63946;51.986;5.930;2022-12-15T10:36:12;-0.01;64.81
75357;HTU21D;63946;51.986;5.930;2022-12-15T10:38:44;0.10;64.63
75357;HTU21D;63946;51.986;5.930;2022-12-15T10:41:15;0.18;64.52
75357;HTU21D;63946;51.986;5.930;2022-12-15T10:43:46;0.24;64.67
75357;HTU21D;63946;51.986;5.930;2022-12-15T10:48:51;0.22;65.14
75357;HTU21D;63946;51.986;5.930;2022-12-15T10:51:31;0.31;65.06
75357;HTU21D;63946;51.986;5.930;2022-12-15T11:01:51;0.62;64.98
75357;HTU21D;63946;51.986;5.930;2022-12-15T11:04:30;0.75;64.68
75357;HTU21D;63946;51.986;5.930;2022-12-15T11:07:01;0.84;64.54
75357;HTU21D;63946;51.986;5.930;2022-12-15T11:09:35;0.95;64.41
75357;HTU21D;63946;51.986;5.930;2022-12-15T11:12:22;1.06;64.39
75357;HTU21D;63946;51.986;5.930;2022-12-15T11:20:59;1.22;64.59
75357;HTU21D;63946;51.986;5.930;2022-12-15T11:29:41;1.51;64.30
75357;HTU21D;63946;51.986;5.930;2022-12-15T11:32:12;1.54;64.36
75357;HTU21D;63946;51.986;5.930;2022-12-15T11:34:43;1.64;64.30
75357;HTU21D;63946;51.986;5.930;2022-12-15T11:37:55;1.72;64.07
75357;HTU21D;63946;51.986;5.930;2022-12-15T11:40:40;1.78;64.17
75357;HTU21D;63946;51.986;5.930;2022-12-15T11:43:38;1.85;64.05
75357;HTU21D;63946;51.986;5.930;2022-12-15T11:46:22;1.85;64.18
75357;HTU21D;63946;51.986;5.930;2022-12-15T11:49:20;1.87;64.40
75357;HTU21D;63946;51.986;5.930;2022-12-15T11:57:21;2.01;64.31
75357;HTU21D;63946;51.986;5.930;2022-12-15T12:00:07;2.11;64.08
75357;HTU21D;63946;51.986;5.930;2022-12-15T12:03:16;2.16;64.05
75357;HTU21D;63946;51.986;5.930;2022-12-15T12:06:08;2.22;63.96
75357;HTU21D;63946;51.986;5.930;2022-12-15T12:08:58;2.32;63.80
75357;HTU21D;63946;51.986;5.930;2022-12-15T12:11:35;2.42;63.69
75357;HTU21D;63946;51.986;5.930;2022-12-15T12:14:33;2.41;63.81
75357;HTU21D;63946;51.986;5.930;2022-12-15T12:17:30;2.47;63.85
75357;HTU21D;63946;51.986;5.930;2022-12-15T12:20:21;2.46;63.81
75357;HTU21D;63946;51.986;5.930;2022-12-15T12:22:59;2.45;63.81
75357;HTU21D;63946;51.986;5.930;2022-12-15T12:25:37;2.41;63.88
75357;HTU21D;63946;51.986;5.930;2022-12-15T12:28:19;2.26;64.21
75357;HTU21D;63946;51.986;5.930;2022-12-15T12:30:50;2.22;64.44
75357;HTU21D;63946;51.986;5.930;2022-12-15T12:33:37;2.26;64.40
75357;HTU21D;63946;51.986;5.930;2022-12-15T12:36:13;2.27;64.27
75357;HTU21D;63946;51.986;5.930;2022-12-15T12:38:44;2.28;64.38
75357;HTU21D;63946;51.986;5.930;2022-12-15T12:44:29;2.43;64.03
75357;HTU21D;63946;51.986;5.930;2022-12-15T12:47:14;2.51;63.88
75357;HTU21D;63946;51.986;5.930;2022-12-15T12:49:47;2.57;63.70
75357;HTU21D;63946;51.986;5.930;2022-12-15T12:52:24;2.59;63.65
75357;HTU21D;63946;51.986;5.930;2022-12-15T12:54:59;2.55;63.82
75357;HTU21D;63946;51.986;5.930;2022-12-15T12:57:38;2.61;63.74
75357;HTU21D;63946;51.986;5.930;2022-12-15T13:13:35;2.82;62.86
75357;HTU21D;63946;51.986;5.930;2022-12-15T13:16:17;2.65;63.36
75357;HTU21D;63946;51.986;5.930;2022-12-15T13:19:05;2.57;63.56
75357;HTU21D;63946;51.986;5.930;2022-12-15T13:29:34;2.60;63.56
75357;HTU21D;63946;51.986;5.930;2022-12-15T13:32:04;2.54;63.72
75357;HTU21D;63946;51.986;5.930;2022-12-15T13:34:36;2.44;63.89
75357;HTU21D;63946;51.986;5.930;2022-12-15T13:54:13;2.70;63.37
75357;HTU21D;63946;51.986;5.930;2022-12-15T13:57:00;2.75;63.37
75357;HTU21D;63946;51.986;5.930;2022-12-15T13:59:43;2.80;63.28
75357;HTU21D;63946;51.986;5.930;2022-12-15T14:02:26;2.83;63.20
75357;HTU21D;63946;51.986;5.930;2022-12-15T14:05:21;2.88;63.15
75357;HTU21D;63946;51.986;5.930;2022-12-15T14:13:19;2.83;63.15
75357;HTU21D;63946;51.986;5.930;2022-12-15T14:20:55;2.64;63.55
75357;HTU21D;63946;51.986;5.930;2022-12-15T14:23:29;2.60;63.67
75357;HTU21D;63946;51.986;5.930;2022-12-15T14:26:07;2.52;63.78
75357;HTU21D;63946;51.986;5.930;2022-12-15T14:28:39;2.43;64.07
75357;HTU21D;63946;51.986;5.930;2022-12-15T14:31:19;2.42;64.13
75357;HTU21D;63946;51.986;5.930;2022-12-15T14:33:56;2.39;64.13
75357;HTU21D;63946;51.986;5.930;2022-12-15T14:36:28;2.39;64.18
75357;HTU21D;63946;51.986;5.930;2022-12-15T14:39:04;2.39;64.11
75357;HTU21D;63946;51.986;5.930;2022-12-15T14:41:36;2.41;64.11
75357;HTU21D;63946;51.986;5.930;2022-12-15T14:44:36;2.39;64.14
75357;HTU21D;63946;51.986;5.930;2022-12-15T14:47:19;2.41;64.11
75357;HTU21D;63946;51.986;5.930;2022-12-15T14:49:50;2.43;64.05
75357;HTU21D;63946;51.986;5.930;2022-12-15T14:52:38;2.43;64.13
75357;HTU21D;63946;51.986;5.930;2022-12-15T14:55:36;2.44;64.11
75357;HTU21D;63946;51.986;5.930;2022-12-15T14:58:29;2.43;64.16
75357;HTU21D;63946;51.986;5.930;2022-12-15T15:00:59;2.28;64.46
75357;HTU21D;63946;51.986;5.930;2022-12-15T15:03:37;2.16;64.83
75357;HTU21D;63946;51.986;5.930;2022-12-15T15:08:47;2.07;65.11
75357;HTU21D;63946;51.986;5.930;2022-12-15T15:11:30;1.97;65.21
75357;HTU21D;63946;51.986;5.930;2022-12-15T15:14:15;1.90;65.36
75357;HTU21D;63946;51.986;5.930;2022-12-15T15:19:35;1.81;65.46
75357;HTU21D;63946;51.986;5.930;2022-12-15T15:22:04;1.78;65.46
75357;HTU21D;63946;51.986;5.930;2022-12-15T15:24:34;1.68;65.64
75357;HTU21D;63946;51.986;5.930;2022-12-15T15:30:13;1.57;65.96
75357;HTU21D;63946;51.986;5.930;2022-12-15T15:32:49;1.57;65.85
75357;HTU21D;63946;51.986;5.930;2022-12-15T15:35:19;1.53;65.92
75357;HTU21D;63946;51.986;5.930;2022-12-15T15:37:48;1.52;65.93
75357;HTU21D;63946;51.986;5.930;2022-12-15T15:40:17;1.49;65.94
75357;HTU21D;63946;51.986;5.930;2022-12-15T15:42:46;1.45;65.96
75357;HTU21D;63946;51.986;5.930;2022-12-15T15:45:15;1.40;65.90
75357;HTU21D;63946;51.986;5.930;2022-12-15T15:47:46;1.36;66.00
75357;HTU21D;63946;51.986;5.930;2022-12-15T15:50:22;1.31;66.02
75357;HTU21D;63946;51.986;5.930;2022-12-15T15:52:52;1.25;66.11
75357;HTU21D;63946;51.986;5.930;2022-12-15T15:55:26;1.19;66.38
75357;HTU21D;63946;51.986;5.930;2022-12-15T15:57:56;1.12;66.50
75357;HTU21D;63946;51.986;5.930;2022-12-15T16:00:25;1.09;66.43
75357;HTU21D;63946;51.986;5.930;2022-12-15T16:02:54;1.02;66.59
75357;HTU21D;63946;51.986;5.930;2022-12-15T16:05:23;0.96;66.76
75357;HTU21D;63946;51.986;5.930;2022-12-15T16:07:51;0.93;66.85
75357;HTU21D;63946;51.986;5.930;2022-12-15T16:10:20;0.91;66.80
75357;HTU21D;63946;51.986;5.930;2022-12-15T16:12:54;0.83;66.88
75357;HTU21D;63946;51.986;5.930;2022-12-15T16:15:27;0.80;66.89
75357;HTU21D;63946;51.986;5.930;2022-12-15T16:17:56;0.82;66.82
75357;HTU21D;63946;51.986;5.930;2022-12-15T16:20:27;0.81;66.70
75357;HTU21D;63946;51.986;5.930;2022-12-15T16:22:59;0.78;66.67
75357;HTU21D;63946;51.986;5.930;2022-12-15T16:25:38;0.76;66.62
75357;HTU21D;63946;51.986;5.930;2022-12-15T16:28:29;0.69;66.70
75357;HTU21D;63946;51.986;5.930;2022-12-15T16:30:58;0.64;66.64
75357;HTU21D;63946;51.986;5.930;2022-12-15T16:33:26;0.59;66.98
75357;HTU21D;63946;51.986;5.930;2022-12-15T16:35:56;0.52;67.13
75357;HTU21D;63946;51.986;5.930;2022-12-15T16:38:27;0.47;67.24
75357;HTU21D;63946;51.986;5.930;2022-12-15T16:41:01;0.45;67.18
75357;HTU21D;63946;51.986;5.930;2022-12-15T16:43:32;0.42;67.26
75357;HTU21D;63946;51.986;5.930;2022-12-15T16:46:01;0.40;67.21
75357;HTU21D;63946;51.986;5.930;2022-12-15T16:48:30;0.36;67.19
75357;HTU21D;63946;51.986;5.930;2022-12-15T16:50:59;0.33;67.22
75357;HTU21D;63946;51.986;5.930;2022-12-15T16:53:32;0.32;67.20
75357;HTU21D;63946;51.986;5.930;2022-12-15T16:56:04;0.29;67.21
75357;HTU21D;63946;51.986;5.930;2022-12-15T16:58:34;0.30;67.14
75357;HTU21D;63946;51.986;5.930;2022-12-15T17:01:03;0.31;67.07
75357;HTU21D;63946;51.986;5.930;2022-12-15T17:03:32;0.30;67.07
75357;HTU21D;63946;51.986;5.930;2022-12-15T17:06:03;0.24;67.09
75357;HTU21D;63946;51.986;5.930;2022-12-15T17:08:39;0.21;67.11
75357;HTU21D;63946;51.986;5.930;2022-12-15T17:11:19;0.18;67.24
75357;HTU21D;63946;51.986;5.930;2022-12-15T17:13:49;0.17;67.05
75357;HTU21D;63946;51.986;5.930;2022-12-15T17:16:20;0.17;67.13
75357;HTU21D;63946;51.986;5.930;2022-12-15T17:18:49;0.15;67.14
75357;HTU21D;63946;51.986;5.930;2022-12-15T17:21:26;0.13;67.20
75357;HTU21D;63946;51.986;5.930;2022-12-15T17:23:58;0.10;67.10
75357;HTU21D;63946;51.986;5.930;2022-12-15T17:26:30;0.06;67.20
75357;HTU21D;63946;51.986;5.930;2022-12-15T17:29:05;0.01;67.27
75357;HTU21D;63946;51.986;5.930;2022-12-15T17:31:37;-0.03;67.32
75357;HTU21D;63946;51.986;5.930;2022-12-15T17:36:55;-0.05;67.15
75357;HTU21D;63946;51.986;5.930;2022-12-15T17:39:24;-0.03;67.20
75357;HTU21D;63946;51.986;5.930;2022-12-15T17:41:53;-0.09;67.21
75357;HTU21D;63946;51.986;5.930;2022-12-15T17:44:25;-0.11;67.23
75357;HTU21D;63946;51.986;5.930;2022-12-15T17:46:54;-0.16;67.36
75357;HTU21D;63946;51.986;5.930;2022-12-15T17:49:22;-0.20;67.46
75357;HTU21D;63946;51.986;5.930;2022-12-15T17:51:51;-0.23;67.43
75357;HTU21D;63946;51.986;5.930;2022-12-15T17:54:20;-0.27;67.42
75357;HTU21D;63946;51.986;5.930;2022-12-15T17:56:49;-0.27;67.31
75357;HTU21D;63946;51.986;5.930;2022-12-15T17:59:18;-0.30;67.24
75357;HTU21D;63946;51.986;5.930;2022-12-15T18:01:47;-0.32;67.29
75357;HTU21D;63946;51.986;5.930;2022-12-15T18:04:16;-0.32;67.15
75357;HTU21D;63946;51.986;5.930;2022-12-15T18:06:45;-0.31;67.07
75357;HTU21D;63946;51.986;5.930;2022-12-15T18:09:15;-0.29;67.03
75357;HTU21D;63946;51.986;5.930;2022-12-15T18:11:44;-0.27;66.99
75357;HTU21D;63946;51.986;5.930;2022-12-15T18:14:15;-0.26;67.07
75357;HTU21D;63946;51.986;5.930;2022-12-15T18:16:44;-0.30;67.12